Time;durP1;ratioP1;P1;durP2;ratioP2;P2;SDS_P1;SDS_P2;PMS_P1;PMS_P2;Temp;Humidity;BMP_temperature;BMP_pressure;BME280_temperature;BME280_humidity;BME280_pressure;Samples;Min_cycle;Max_cycle;Signal;HPM_P1;HPM_P2
2023/03/21 00:01:52;;;;;;;9.43;8.00;;;;;;;11.56;86.16;98376.13;4128904;28;20658;-87
2023/03/21 00:03:56;;;;;;;8.73;7.83;;;;;;;11.55;85.74;98377.91;4110526;28;20722;-87
2023/03/21 00:06:00;;;;;;;11.13;8.03;;;;;;;11.53;87.91;98377.19;4104574;28;20736;-87
2023/03/21 00:08:03;;;;;;;9.20;8.30;;;;;;;11.52;86.03;98377.28;4117917;28;20640;-87
2023/03/21 00:10:06;;;;;;;9.03;8.03;;;;;;;11.52;86.50;98375.50;4128667;28;20723;-87
2023/03/21 00:12:20;;;;;;;10.03;8.10;;;;;;;11.49;85.97;98370.47;4137877;28;20648;-87
2023/03/21 00:14:24;;;;;;;8.80;7.70;;;;;;;11.49;87.19;98369.66;4141566;28;20671;-87
2023/03/21 00:16:29;;;;;;;11.37;7.17;;;;;;;11.46;87.38;98369.84;4122395;28;21243;-87
2023/03/21 00:18:45;;;;;;;8.20;6.73;;;;;;;11.46;86.89;98373.28;4125098;28;21254;-87
2023/03/21 00:20:57;;;;;;;8.63;6.67;;;;;;;11.44;87.98;98371.69;4124267;28;20986;-87
2023/03/21 00:23:20;;;;;;;7.90;7.10;;;;;;;11.42;86.79;98365.75;4121315;28;20636;-87
2023/03/21 00:25:24;;;;;;;7.73;6.93;;;;;;;11.40;87.60;98373.69;4119298;28;20670;-87
2023/03/21 00:27:27;;;;;;;9.23;7.20;;;;;;;11.37;87.53;98368.66;4127790;28;21034;-87
2023/03/21 00:29:50;;;;;;;9.57;6.90;;;;;;;11.35;87.78;98373.16;4134317;28;20658;-87
2023/03/21 00:31:53;;;;;;;9.40;6.93;;;;;;;11.33;88.26;98374.19;4124780;28;20640;-87
2023/03/21 00:34:00;;;;;;;9.63;7.33;;;;;;;11.30;88.82;98372.59;4125764;28;20643;-86
2023/03/21 00:36:08;;;;;;;10.57;7.23;;;;;;;11.29;88.60;98359.69;4121560;28;20670;-87
2023/03/21 00:38:12;;;;;;;7.53;6.83;;;;;;;11.29;88.56;98364.91;4133210;28;20623;-87
2023/03/21 00:40:15;;;;;;;8.53;6.90;;;;;;;11.27;88.96;98353.72;4126100;28;20645;-87
2023/03/21 00:42:29;;;;;;;7.80;6.10;;;;;;;11.27;88.35;98363.31;4105643;28;20628;-87
2023/03/21 00:44:35;;;;;;;7.23;6.27;;;;;;;11.26;88.54;98357.28;4125975;28;20636;-87
2023/03/21 00:46:38;;;;;;;7.20;6.13;;;;;;;11.24;88.72;98353.09;4120950;28;20681;-87
2023/03/21 00:49:02;;;;;;;7.67;6.10;;;;;;;11.22;87.52;98353.19;4135170;28;20639;-86
2023/03/21 00:51:14;;;;;;;7.17;6.20;;;;;;;11.23;88.82;98349.66;4107396;28;21262;-87
2023/03/21 00:53:17;;;;;;;7.60;6.60;;;;;;;11.21;88.29;98343.66;4134395;28;20733;-87
2023/03/21 00:55:21;;;;;;;7.60;6.50;;;;;;;11.21;88.77;98343.66;4121715;28;20666;-87
2023/03/21 00:57:24;;;;;;;6.97;6.27;;;;;;;11.20;88.26;98342.03;4121115;28;20639;-87
2023/03/21 00:59:40;;;;;;;7.37;6.67;;;;;;;11.20;88.76;98331.59;4127048;28;20697;-87
2023/03/21 01:01:45;;;;;;;7.57;6.77;;;;;;;11.20;88.65;98341.16;4105459;28;20655;-87
2023/03/21 01:04:04;;;;;;;10.10;7.00;;;;;;;11.17;88.56;98334.41;4124896;28;20730;-87
2023/03/21 01:06:07;;;;;;;7.73;6.90;;;;;;;11.16;89.68;98334.50;4120363;28;20728;-87
2023/03/21 01:08:12;;;;;;;7.50;6.70;;;;;;;11.15;89.50;98332.81;4134738;28;20741;-86
2023/03/21 01:10:28;;;;;;;9.87;6.43;;;;;;;11.14;90.17;98334.59;4125278;28;21528;-87
2023/03/21 01:12:31;;;;;;;8.70;7.20;;;;;;;11.13;89.04;98327.69;4120780;28;20650;-87
2023/03/21 01:14:34;;;;;;;9.40;6.77;;;;;;;11.12;90.56;98330.41;4123905;28;20658;-86
2023/03/21 01:16:38;;;;;;;9.47;7.30;;;;;;;11.11;90.08;98326.97;4126493;28;20734;-87
2023/03/21 01:18:42;;;;;;;7.50;6.70;;;;;;;11.11;89.50;98332.19;4126251;28;20639;-87
2023/03/21 01:20:45;;;;;;;8.10;6.63;;;;;;;11.09;90.29;98328.00;4122238;28;21288;-87
2023/03/21 01:22:49;;;;;;;8.37;7.27;;;;;;;11.09;89.32;98328.81;4125876;28;20651;-86
2023/03/21 01:24:53;;;;;;;9.27;7.37;;;;;;;11.08;90.53;98327.19;4124785;28;20635;-87
2023/03/21 01:27:07;;;;;;;10.20;7.00;;;;;;;11.06;90.92;98323.81;4117138;28;21419;-86
2023/03/21 01:29:11;;;;;;;7.50;6.80;;;;;;;11.05;89.21;98322.16;4122592;28;20644;-87
2023/03/21 01:31:16;;;;;;;8.70;7.03;;;;;;;11.04;90.51;98324.88;4114067;28;20761;-87
2023/03/21 01:33:20;;;;;;;11.07;7.33;;;;;;;11.02;88.88;98316.28;4121526;28;20667;-87
2023/03/21 01:35:23;;;;;;;8.93;7.07;;;;;;;11.02;89.66;98324.97;4125053;28;20656;-86
2023/03/21 01:37:27;;;;;;;9.00;6.57;;;;;;;11.02;89.51;98324.97;4125630;28;20685;-87
2023/03/21 01:39:33;;;;;;;10.07;7.77;;;;;;;11.02;89.80;98321.50;4139353;28;20645;-87
2023/03/21 01:41:39;;;;;;;7.90;6.60;;;;;;;11.00;90.19;98326.81;4125051;28;20642;-86
2023/03/21 01:44:04;;;;;;;11.43;7.10;;;;;;;11.00;90.39;98320.78;4136079;28;20926;-87
2023/03/21 01:46:38;;;;;;;8.50;7.40;;;;;;;10.99;90.94;98319.97;4104651;28;20644;-86
2023/03/21 01:49:20;;;;;;;8.47;7.00;;;;;;;10.97;90.20;98316.59;4118594;28;21203;-87
2023/03/21 01:51:27;;;;;;;8.03;7.03;;;;;;;10.95;90.60;98310.66;4133268;28;20633;-86
2023/03/21 01:53:33;;;;;;;8.10;7.27;;;;;;;10.94;89.75;98305.53;4124721;28;21358;-87
2023/03/21 01:55:37;;;;;;;9.43;7.03;;;;;;;10.91;91.42;98298.72;4137343;28;20686;-86
2023/03/21 01:57:52;;;;;;;9.23;7.13;;;;;;;10.89;89.97;98300.63;4121548;28;20642;-86
2023/03/21 02:00:49;;;;;;;8.83;7.20;;;;;;;10.89;90.98;98298.00;4118790;28;21189;-86
2023/03/21 02:03:07;;;;;;;8.77;7.00;;;;;;;10.87;90.83;98299.88;4133339;28;20643;-87
2023/03/21 02:05:37;;;;;;;9.47;7.30;;;;;;;10.88;91.42;98298.97;4116861;28;20698;-86
2023/03/21 02:07:42;;;;;;;7.73;6.80;;;;;;;10.90;90.80;98301.47;4128008;28;20638;-86
2023/03/21 02:09:50;;;;;;;10.00;7.40;;;;;;;10.87;90.63;98297.28;4135162;28;20662;-87
2023/03/21 02:11:56;;;;;;;7.83;7.03;;;;;;;10.86;90.71;98295.59;4127727;28;20657;-87
2023/03/21 02:14:08;;;;;;;9.40;7.20;;;;;;;10.86;90.87;98295.59;4133217;28;20705;-86
2023/03/21 02:16:33;;;;;;;10.20;8.00;;;;;;;10.85;90.72;98295.69;4100741;28;20652;-87
2023/03/21 02:18:39;;;;;;;8.93;7.63;;;;;;;10.85;91.64;98293.09;4114195;28;20635;-87
2023/03/21 02:21:27;;;;;;;9.70;6.80;;;;;;;10.85;90.99;98286.13;4137307;28;20724;-86
2023/03/21 02:24:00;;;;;;;11.33;6.40;;;;;;;10.85;90.77;98290.47;4131335;28;20749;-86
2023/03/21 02:26:57;;;;;;;10.03;7.20;;;;;;;10.82;90.67;98288.94;4117253;28;20628;-87
2023/03/21 02:29:23;;;;;;;7.73;6.90;;;;;;;10.80;90.04;98280.34;4068631;29;20644;-86
2023/03/21 02:31:36;;;;;;;9.13;7.27;;;;;;;10.80;90.93;98285.56;4050814;29;20643;-86
2023/03/21 02:34:17;;;;;;;9.20;7.90;;;;;;;10.78;91.43;98285.75;4086745;28;20642;-86
2023/03/21 02:36:27;;;;;;;7.93;6.40;;;;;;;10.79;91.50;98282.22;4132540;28;20667;-86
2023/03/21 02:38:36;;;;;;;7.23;6.40;;;;;;;10.77;90.86;98284.94;4134261;28;20628;-87
2023/03/21 02:40:43;;;;;;;10.10;6.53;;;;;;;10.76;90.84;98283.25;4120769;28;21259;-87
2023/03/21 02:42:56;;;;;;;11.63;7.83;;;;;;;10.74;91.24;98285.13;4106987;28;21465;-86
2023/03/21 02:45:11;;;;;;;7.67;6.30;;;;;;;10.73;91.21;98285.25;4116585;28;20735;-87
2023/03/21 02:47:19;;;;;;;7.30;6.43;;;;;;;10.72;91.13;98281.81;4139024;28;20633;-87
2023/03/21 02:49:24;;;;;;;8.20;6.63;;;;;;;10.72;90.89;98283.56;4136524;28;20678;-87
2023/03/21 02:51:31;;;;;;;8.37;6.50;;;;;;;10.71;90.92;98285.34;4125827;28;20741;-86
2023/03/21 02:53:38;;;;;;;7.80;6.13;;;;;;;10.71;90.92;98279.31;4126948;28;21173;-86
2023/03/21 02:55:43;;;;;;;7.60;6.43;;;;;;;10.70;91.16;98280.22;4132927;28;20662;-86
2023/03/21 02:57:48;;;;;;;7.43;6.20;;;;;;;10.68;91.63;98276.91;4109560;28;20647;-86
2023/03/21 02:59:52;;;;;;;9.00;6.80;;;;;;;10.68;92.05;98280.31;4121043;28;20641;-86
2023/03/21 03:02:08;;;;;;;9.07;5.77;;;;;;;10.63;90.54;98271.97;4132490;28;21232;-86
2023/03/21 03:04:21;;;;;;;8.50;6.60;;;;;;;10.64;91.94;98272.81;4123040;28;20668;-86
2023/03/21 03:06:27;;;;;;;10.37;6.70;;;;;;;10.63;91.79;98271.13;4134791;28;20645;-86
2023/03/21 03:08:37;;;;;;;8.70;6.10;;;;;;;10.62;90.80;98267.69;4133386;28;20637;-87
2023/03/21 03:11:11;;;;;;;9.53;6.40;;;;;;;10.62;91.05;98269.47;4130223;28;21037;-86
2023/03/21 03:13:21;;;;;;;10.03;6.60;;;;;;;10.61;91.75;98267.78;4137991;28;20669;-86
2023/03/21 03:15:32;;;;;;;7.17;6.10;;;;;;;10.59;90.83;98267.88;4129284;28;20658;-86
2023/03/21 03:17:45;;;;;;;8.70;6.03;;;;;;;10.58;91.07;98266.22;4109125;28;20639;-87
2023/03/21 03:19:58;;;;;;;8.00;6.30;;;;;;;10.57;91.54;98263.69;4118486;28;20657;-86
2023/03/21 03:22:10;;;;;;;8.17;6.30;;;;;;;10.55;91.49;98262.97;4124977;28;21045;-86
2023/03/21 03:24:19;;;;;;;8.80;6.27;;;;;;;10.56;90.97;98265.47;4137102;28;20635;-87
2023/03/21 03:26:26;;;;;;;7.27;6.07;;;;;;;10.55;92.47;98266.41;4122730;28;20627;-86
2023/03/21 03:28:36;;;;;;;7.27;6.30;;;;;;;10.54;92.14;98266.50;4134600;28;20683;-87
2023/03/21 03:30:45;;;;;;;8.43;6.67;;;;;;;10.55;91.75;98263.78;4123844;28;20646;-86
2023/03/21 03:33:15;;;;;;;7.10;6.13;;;;;;;10.54;91.56;98263.91;4137695;28;20631;-86
2023/03/21 03:35:20;;;;;;;8.43;6.60;;;;;;;10.51;91.85;98264.94;4124135;28;20638;-86
2023/03/21 03:37:25;;;;;;;8.10;6.40;;;;;;;10.47;91.51;98265.25;4138719;28;20639;-86
2023/03/21 03:39:35;;;;;;;10.20;6.10;;;;;;;10.50;92.28;98271.09;4124624;28;20679;-86
2023/03/21 03:41:44;;;;;;;7.33;6.53;;;;;;;10.50;92.73;98267.66;4130104;28;20646;-86
2023/03/21 03:44:11;;;;;;;10.37;8.70;;;;;;;10.50;91.63;98265.88;4122341;28;20630;-86
2023/03/21 03:46:27;;;;;;;11.23;8.53;;;;;;;10.49;91.52;98264.22;4109234;28;20643;-87
2023/03/21 03:48:33;;;;;;;8.10;7.30;;;;;;;10.49;92.08;98263.38;4117321;28;20701;-86
2023/03/21 03:50:40;;;;;;;8.30;6.70;;;;;;;10.49;92.21;98258.16;4141175;28;20673;-86
2023/03/21 03:52:50;;;;;;;9.30;8.00;;;;;;;10.49;92.18;98260.75;4121848;28;20728;-87
2023/03/21 03:55:03;;;;;;;9.03;7.00;;;;;;;10.48;91.75;98257.34;4126220;28;20666;-86
2023/03/21 03:57:12;;;;;;;9.30;6.80;;;;;;;10.47;91.88;98254.81;4127429;28;20650;-86
2023/03/21 03:59:18;;;;;;;10.63;7.13;;;;;;;10.44;91.60;98249.81;4132837;28;20746;-86
2023/03/21 04:01:44;;;;;;;8.60;6.80;;;;;;;10.43;91.87;98253.34;4120581;28;20645;-86
2023/03/21 04:03:48;;;;;;;8.73;6.90;;;;;;;10.43;91.88;98258.56;4128239;28;21553;-86
2023/03/21 04:06:00;;;;;;;7.90;6.10;;;;;;;10.40;91.64;98259.59;4114343;28;20727;-86
2023/03/21 04:08:05;;;;;;;9.10;6.50;;;;;;;10.38;91.42;98258.03;4122559;28;20678;-86
2023/03/21 04:10:17;;;;;;;9.50;7.10;;;;;;;10.35;92.28;98259.06;4104564;28;20640;-86
2023/03/21 04:12:20;;;;;;;9.13;6.90;;;;;;;10.34;92.45;98260.00;4120869;28;20650;-86
2023/03/21 04:14:46;;;;;;;7.83;7.03;;;;;;;10.32;92.95;98252.38;4115109;28;20645;-86
2023/03/21 04:16:53;;;;;;;7.00;6.30;;;;;;;10.31;92.41;98263.72;4121713;28;20651;-86
2023/03/21 04:18:56;;;;;;;7.80;6.60;;;;;;;10.31;92.50;98254.13;4109094;28;20644;-86
2023/03/21 04:21:00;;;;;;;7.27;6.30;;;;;;;10.32;91.89;98248.81;4141663;28;20683;-86
2023/03/21 04:23:05;;;;;;;10.70;6.70;;;;;;;10.31;92.23;98256.75;4114523;28;20639;-86
2023/03/21 04:25:09;;;;;;;8.57;7.30;;;;;;;10.32;92.47;98247.16;4107590;28;20639;-86
2023/03/21 04:27:14;;;;;;;8.30;6.77;;;;;;;10.31;92.52;98254.13;4113404;28;20700;-86
2023/03/21 04:29:22;;;;;;;12.10;7.20;;;;;;;10.31;92.51;98248.91;4126155;28;21329;-86
2023/03/21 04:31:48;;;;;;;12.27;6.93;;;;;;;10.31;93.06;98243.72;4121471;28;20641;-86
2023/03/21 04:33:52;;;;;;;8.80;6.73;;;;;;;10.31;92.02;98248.91;4125920;28;20730;-86
2023/03/21 04:35:57;;;;;;;8.87;6.63;;;;;;;10.30;92.07;98249.88;4138701;28;20670;-86
2023/03/21 04:38:04;;;;;;;8.17;6.07;;;;;;;10.31;92.53;98248.09;4121935;28;21346;-86
2023/03/21 04:40:09;;;;;;;8.43;6.73;;;;;;;10.31;92.26;98254.13;4135022;28;20631;-86
2023/03/21 04:42:14;;;;;;;9.50;6.70;;;;;;;10.30;92.52;98239.44;4125491;28;20638;-86
2023/03/21 04:44:18;;;;;;;11.80;6.57;;;;;;;10.30;92.49;98251.63;4121100;28;21109;-86
2023/03/21 04:46:21;;;;;;;8.18;5.88;;;;;;;10.30;92.77;98247.28;4139024;28;21085;-86
2023/03/21 04:48:26;;;;;;;9.07;6.37;;;;;;;10.29;92.19;98250.81;4127946;28;20247;-86
2023/03/21 04:50:31;;;;;;;8.40;5.80;;;;;;;10.32;91.89;98248.00;4108999;28;20803;-86
2023/03/21 04:52:35;;;;;;;9.63;7.70;;;;;;;10.33;91.87;98245.28;4138834;28;20636;-87
2023/03/21 04:54:38;;;;;;;11.40;9.40;;;;;;;10.33;91.33;98244.47;4119105;28;20646;-86
2023/03/21 04:56:41;;;;;;;11.60;7.87;;;;;;;10.34;92.45;98243.50;4105132;28;20661;-86
2023/03/21 04:58:46;;;;;;;15.33;9.50;;;;;;;10.33;91.67;98244.47;4122433;28;20665;-86
2023/03/21 05:00:51;;;;;;;12.57;11.17;;;;;;;10.34;92.40;98240.91;4119497;28;20647;-86
2023/03/21 05:02:56;;;;;;;13.97;10.53;;;;;;;10.34;91.62;98246.97;4122253;28;21075;-86
2023/03/21 05:04:59;;;;;;;13.23;10.10;;;;;;;10.34;91.70;98243.50;4120994;28;21334;-86
2023/03/21 05:07:02;;;;;;;14.20;10.17;;;;;;;10.33;91.82;98247.91;4107715;28;20637;-86
2023/03/21 05:09:06;;;;;;;11.40;9.00;;;;;;;10.33;91.62;98247.06;4123859;28;20644;-86
2023/03/21 05:11:10;;;;;;;9.47;8.03;;;;;;;10.32;92.44;98244.56;4128538;28;20734;-86
2023/03/21 05:13:14;;;;;;;9.20;7.50;;;;;;;10.32;92.26;98251.44;4123841;28;21227;-86
2023/03/21 05:15:18;;;;;;;10.37;6.83;;;;;;;10.32;92.72;98242.78;4117838;28;20663;-86
2023/03/21 05:17:23;;;;;;;10.83;7.67;;;;;;;10.32;92.20;98245.38;4122555;28;21025;-86
2023/03/21 05:19:33;;;;;;;7.87;6.50;;;;;;;10.31;91.88;98240.28;4125220;28;20622;-86
2023/03/21 05:21:40;;;;;;;8.70;6.63;;;;;;;10.30;92.52;98236.84;4125954;28;20650;-86
2023/03/21 05:23:53;;;;;;;7.80;6.30;;;;;;;10.31;92.53;98243.72;4120463;28;20670;-86
2023/03/21 05:25:56;;;;;;;8.20;6.70;;;;;;;10.32;92.48;98240.19;4135574;28;20634;-86
2023/03/21 05:28:10;;;;;;;9.13;6.80;;;;;;;10.32;91.38;98241.00;4117515;28;20619;-86
2023/03/21 05:30:17;;;;;;;11.50;7.70;;;;;;;10.30;91.94;98241.19;4124803;28;20646;-86
2023/03/21 05:32:23;;;;;;;13.20;8.23;;;;;;;10.31;91.57;98243.72;4117402;28;20671;-86
2023/03/21 05:34:27;;;;;;;16.87;10.40;;;;;;;10.31;91.83;98241.09;4115682;28;20652;-86
2023/03/21 05:36:32;;;;;;;8.43;6.77;;;;;;;10.29;92.17;98242.97;4099952;28;20746;-86
2023/03/21 05:38:36;;;;;;;10.77;8.47;;;;;;;10.31;91.56;98246.31;4123851;28;20639;-86
2023/03/21 05:40:39;;;;;;;17.63;9.90;;;;;;;10.31;92.33;98251.53;4132902;28;20639;-86
2023/03/21 05:42:43;;;;;;;13.60;10.32;;;;;;;10.33;91.80;98249.69;4137251;28;20647;-86
2023/03/21 05:44:58;;;;;;;11.83;8.27;;;;;;;10.32;92.36;98255.81;4122880;28;20208;-85
2023/03/21 05:47:07;;;;;;;15.47;9.00;;;;;;;10.31;92.33;98261.94;4135346;28;20657;-87
2023/03/21 05:49:23;;;;;;;17.87;10.90;;;;;;;10.32;92.74;98263.63;4125403;28;20634;-85
2023/03/21 05:51:30;;;;;;;17.33;11.23;;;;;;;10.33;91.96;98265.31;4120944;28;20638;-87
2023/03/21 05:53:34;;;;;;;15.93;10.93;;;;;;;10.33;91.53;98258.31;4122988;28;20640;-85
2023/03/21 05:55:37;;;;;;;15.77;10.87;;;;;;;10.32;92.57;98259.25;4116134;28;20637;-86
2023/03/21 05:57:45;;;;;;;14.33;10.60;;;;;;;10.35;92.35;98260.84;4106999;28;20646;-86
2023/03/21 05:59:54;;;;;;;17.90;11.07;;;;;;;10.37;92.94;98256.34;4142618;28;21039;-86
2023/03/21 06:01:57;;;;;;;20.33;12.43;;;;;;;10.39;92.56;98262.31;4129567;28;20663;-86
2023/03/21 06:04:02;;;;;;;23.13;12.67;;;;;;;10.39;92.48;98263.13;4131021;28;20686;-86
2023/03/21 06:06:06;;;;;;;16.93;11.40;;;;;;;10.44;93.21;98262.84;4105225;28;20636;-86
2023/03/21 06:08:15;;;;;;;23.30;12.60;;;;;;;10.44;93.29;98262.84;4117172;28;20634;-86
2023/03/21 06:10:20;;;;;;;23.93;13.67;;;;;;;10.45;92.13;98262.75;4123791;28;20640;-88
2023/03/21 06:12:24;;;;;;;19.77;14.10;;;;;;;10.47;93.40;98258.25;4126603;28;20665;-85
2023/03/21 06:14:41;;;;;;;20.03;12.33;;;;;;;10.51;92.71;98261.53;4121428;28;20720;-84
2023/03/21 06:16:55;;;;;;;18.73;12.80;;;;;;;10.53;92.68;98259.63;4117120;28;20699;-84
2023/03/21 06:18:58;;;;;;;19.60;13.97;;;;;;;10.56;92.85;98267.25;4118844;28;21237;-86
2023/03/21 06:21:13;;;;;;;20.50;13.33;;;;;;;10.58;92.75;98266.22;4108599;28;20647;-86
2023/03/21 06:23:16;;;;;;;22.83;13.13;;;;;;;10.64;92.37;98264.97;4110141;28;20650;-86
2023/03/21 06:25:22;;;;;;;19.73;14.60;;;;;;;10.68;92.26;98269.06;4106909;28;21242;-85
2023/03/21 06:27:29;;;;;;;18.90;14.20;;;;;;;10.74;92.30;98268.66;4119838;28;20647;-86
2023/03/21 06:29:32;;;;;;;20.17;11.57;;;;;;;10.77;92.78;98271.91;4108901;28;20649;-86
2023/03/21 06:31:37;;;;;;;17.70;11.90;;;;;;;10.79;92.29;98271.78;4106114;28;22574;-86
2023/03/21 06:33:40;;;;;;;14.60;10.13;;;;;;;10.82;91.82;98275.88;4107084;28;20643;-86
2023/03/21 06:35:43;;;;;;;14.67;10.67;;;;;;;10.81;92.13;98276.81;4120766;28;20762;-86
2023/03/21 06:37:49;;;;;;;13.80;10.70;;;;;;;10.83;91.24;98276.72;4118359;28;21126;-84
2023/03/21 06:39:54;;;;;;;15.07;9.37;;;;;;;10.82;90.76;98275.03;4120840;28;20654;-86
2023/03/21 06:41:58;;;;;;;11.23;8.73;;;;;;;10.83;91.30;98274.09;4138308;28;20734;-84
2023/03/21 06:44:01;;;;;;;12.37;9.70;;;;;;;10.83;89.96;98274.94;4125836;28;20635;-85
2023/03/21 06:46:08;;;;;;;12.03;9.30;;;;;;;10.87;91.32;98278.19;4129050;28;20735;-84
2023/03/21 06:48:12;;;;;;;12.77;8.20;;;;;;;10.90;90.46;98273.59;4128354;28;20666;-84
2023/03/21 06:50:24;;;;;;;12.83;8.67;;;;;;;10.98;92.03;98275.69;4134219;28;20679;-84
2023/03/21 06:52:27;;;;;;;11.10;8.10;;;;;;;11.02;92.05;98283.22;4113609;28;21198;-83
2023/03/21 06:54:31;;;;;;;10.93;8.03;;;;;;;11.06;91.14;98287.28;4132116;28;21270;-84
2023/03/21 06:56:39;;;;;;;12.43;7.70;;;;;;;11.08;90.15;98288.03;4110746;28;20635;-83
2023/03/21 06:58:45;;;;;;;9.67;7.80;;;;;;;11.15;91.23;98280.59;4129844;28;20622;-83
2023/03/21 07:01:13;;;;;;;12.40;8.50;;;;;;;11.24;91.45;98280.81;4126661;28;20705;-83
2023/03/21 07:03:27;;;;;;;9.80;7.33;;;;;;;11.28;89.08;98285.72;4128545;28;21205;-83
2023/03/21 07:05:30;;;;;;;10.60;7.93;;;;;;;11.32;90.37;98281.13;4129546;28;20658;-84
2023/03/21 07:07:34;;;;;;;10.90;7.80;;;;;;;11.37;88.71;98281.66;4115307;28;20642;-84
2023/03/21 07:09:38;;;;;;;8.80;7.53;;;;;;;11.44;88.95;98282.91;4127428;28;20735;-83
2023/03/21 07:11:41;;;;;;;14.80;9.03;;;;;;;11.51;88.41;98286.81;4124484;28;20623;-83
2023/03/21 07:13:45;;;;;;;11.17;8.20;;;;;;;11.56;88.29;98285.56;4141254;28;20693;-87
2023/03/21 07:15:48;;;;;;;13.77;9.80;;;;;;;11.62;89.29;98292.09;4127626;28;20689;-92
2023/03/21 07:17:53;;;;;;;11.93;8.20;;;;;;;11.68;89.72;98286.47;4136712;28;21505;-88
2023/03/21 07:19:56;;;;;;;11.13;8.87;;;;;;;11.73;88.69;98289.59;4128261;28;20650;-88
2023/03/21 07:22:00;;;;;;;10.30;8.90;;;;;;;11.77;89.37;98282.28;4129054;28;20642;-88
2023/03/21 07:24:06;;;;;;;12.30;8.83;;;;;;;11.83;89.26;98281.84;4110474;28;20629;-88
2023/03/21 07:26:11;;;;;;;10.70;8.37;;;;;;;11.91;89.07;98287.38;4114676;28;20648;-88
2023/03/21 07:28:15;;;;;;;12.30;11.00;;;;;;;11.96;87.57;98282.63;4140330;28;20630;-88
2023/03/21 07:30:19;;;;;;;9.73;8.73;;;;;;;12.04;87.37;98282.94;4130165;28;20635;-88
2023/03/21 07:32:22;;;;;;;12.70;8.60;;;;;;;12.07;86.70;98279.25;4112094;28;20642;-87
2023/03/21 07:34:30;;;;;;;14.10;10.97;;;;;;;12.11;86.97;98278.94;4114102;28;20637;-89
2023/03/21 07:36:35;;;;;;;12.23;10.43;;;;;;;12.22;88.63;98279.00;4113604;28;20667;-89
2023/03/21 07:38:39;;;;;;;15.00;13.40;;;;;;;12.30;87.34;98282.75;4114359;28;20698;-89
2023/03/21 07:40:43;;;;;;;14.80;11.97;;;;;;;12.40;86.78;98282.91;4126506;28;20646;-89
2023/03/21 07:42:48;;;;;;;10.30;9.27;;;;;;;12.48;87.85;98286.66;4127387;28;20627;-89
2023/03/21 07:45:03;;;;;;;12.70;9.17;;;;;;;12.57;87.38;98277.28;4135100;28;20684;-87
2023/03/21 07:47:08;;;;;;;11.87;8.90;;;;;;;12.63;87.19;98268.97;4130143;28;21183;-87
2023/03/21 07:49:11;;;;;;;11.70;8.20;;;;;;;12.71;86.16;98281.38;4129961;28;20963;-88
2023/03/21 07:51:15;;;;;;;10.90;8.50;;;;;;;12.86;86.37;98287.31;4117989;28;20694;-89
2023/03/21 07:53:18;;;;;;;11.20;8.23;;;;;;;13.00;87.53;98287.94;4132036;28;20639;-89
2023/03/21 07:55:22;;;;;;;8.10;7.03;;;;;;;13.11;85.78;98293.22;4135562;28;21198;-89
2023/03/21 07:57:25;;;;;;;8.10;6.70;;;;;;;13.21;85.17;98288.94;4140121;28;20642;-88
2023/03/21 07:59:29;;;;;;;8.30;7.37;;;;;;;13.31;85.14;98295.19;4120846;28;21223;-86
2023/03/21 08:01:33;;;;;;;12.80;11.33;;;;;;;13.41;84.99;98293.50;4124656;28;20627;-87
2023/03/21 08:03:36;;;;;;;8.00;6.10;;;;;;;13.50;84.10;98295.44;4124027;28;20640;-86
2023/03/21 08:05:40;;;;;;;10.33;8.20;;;;;;;13.58;82.38;98300.94;4130131;28;21726;-86
2023/03/21 08:07:44;;;;;;;7.30;5.73;;;;;;;13.65;81.14;98295.06;4134727;28;20663;-88
2023/03/21 08:09:47;;;;;;;6.37;5.33;;;;;;;13.82;82.45;98295.44;4132528;28;20622;-87
2023/03/21 08:11:50;;;;;;;5.73;5.13;;;;;;;14.11;82.21;98298.44;4128388;28;20633;-86
2023/03/21 08:13:55;;;;;;;6.40;5.57;;;;;;;14.40;80.68;98303.03;4132079;28;20743;-86
2023/03/21 08:15:59;;;;;;;7.57;5.13;;;;;;;14.55;78.69;98294.75;4105792;28;20628;-89
2023/03/21 08:18:03;;;;;;;8.07;5.20;;;;;;;14.80;77.33;98292.63;4131485;28;21328;-86
2023/03/21 08:20:08;;;;;;;7.87;5.40;;;;;;;14.96;74.94;98294.84;4135602;28;21075;-86
2023/03/21 08:22:12;;;;;;;6.30;5.07;;;;;;;15.22;77.42;98297.84;4123650;28;21209;-86
2023/03/21 08:24:15;;;;;;;5.47;4.97;;;;;;;15.48;74.00;98303.53;4104122;28;20645;-86
2023/03/21 08:26:18;;;;;;;5.10;4.43;;;;;;;15.75;73.78;98316.00;4130721;28;20647;-86
2023/03/21 08:28:22;;;;;;;5.90;4.50;;;;;;;15.99;74.06;98306.00;4104587;28;20644;-86
2023/03/21 08:30:27;;;;;;;7.07;5.20;;;;;;;16.19;74.24;98308.59;4123725;28;20653;-86
2023/03/21 08:32:31;;;;;;;6.47;4.83;;;;;;;16.24;73.08;98306.41;4123639;28;21170;-86
2023/03/21 08:34:35;;;;;;;5.60;4.60;;;;;;;16.44;73.28;98312.56;4125115;28;20645;-86
2023/03/21 08:36:38;;;;;;;5.50;4.53;;;;;;;16.55;73.08;98295.69;4139189;28;20618;-86
2023/03/21 08:38:41;;;;;;;4.93;4.43;;;;;;;16.61;71.66;98292.50;4138242;28;20669;-85
2023/03/21 08:40:44;;;;;;;5.33;4.10;;;;;;;16.66;67.78;98292.09;4124404;28;20653;-85
2023/03/21 08:42:47;;;;;;;4.80;3.97;;;;;;;16.64;67.71;98288.75;4125177;28;20788;-85
2023/03/21 08:44:50;;;;;;;5.57;4.70;;;;;;;16.78;72.08;98286.56;4125711;28;20640;-85
2023/03/21 08:46:54;;;;;;;5.10;4.60;;;;;;;16.81;71.50;98290.69;4113265;28;20734;-85
2023/03/21 08:48:58;;;;;;;4.93;4.10;;;;;;;16.90;69.72;98298.63;4109668;28;20640;-86
2023/03/21 08:51:01;;;;;;;4.70;4.17;;;;;;;16.98;68.28;98289.03;4124020;28;20684;-86
2023/03/21 08:53:04;;;;;;;5.27;3.73;;;;;;;17.04;68.75;98287.66;4108323;28;20643;-86
2023/03/21 08:55:09;;;;;;;4.60;4.10;;;;;;;17.15;68.93;98298.03;4109862;28;20737;-86
2023/03/21 08:57:12;;;;;;;5.53;4.03;;;;;;;17.23;67.31;98283.25;4121306;28;20735;-86
2023/03/21 08:59:15;;;;;;;5.97;4.00;;;;;;;17.30;68.51;98283.50;4122485;28;21228;-86
2023/03/21 09:01:18;;;;;;;6.40;3.73;;;;;;;17.33;67.18;98277.94;4139031;28;21092;-86
2023/03/21 09:03:21;;;;;;;5.27;4.00;;;;;;;17.27;67.39;98275.88;4125308;28;20641;-86
2023/03/21 09:05:27;;;;;;;3.83;3.43;;;;;;;17.26;66.05;98272.41;4118640;28;21265;-86
2023/03/21 09:07:33;;;;;;;4.30;3.90;;;;;;;17.41;68.64;98275.41;4120335;28;21309;-86
2023/03/21 09:09:37;;;;;;;4.60;4.00;;;;;;;17.52;66.01;98278.75;4119738;28;20726;-86
2023/03/21 09:11:40;;;;;;;4.53;3.17;;;;;;;17.54;66.06;98274.13;4136312;28;21227;-86
2023/03/21 09:13:43;;;;;;;3.77;3.37;;;;;;;17.66;66.94;98278.28;4123314;28;20728;-86
2023/03/21 09:15:46;;;;;;;4.80;3.50;;;;;;;17.68;65.01;98271.88;4143237;28;20662;-86
2023/03/21 09:17:51;;;;;;;6.90;3.23;;;;;;;17.75;65.46;98270.31;4119184;28;20648;-86
2023/03/21 09:19:56;;;;;;;4.43;3.50;;;;;;;17.86;66.23;98266.66;4103733;28;20701;-86
2023/03/21 09:22:01;;;;;;;5.83;3.60;;;;;;;17.80;66.43;98273.38;4118448;28;20635;-86
2023/03/21 09:24:05;;;;;;;5.40;2.77;;;;;;;17.83;63.74;98267.81;4117948;28;20729;-86
2023/03/21 09:26:09;;;;;;;3.37;2.83;;;;;;;17.90;62.32;98271.50;4107979;28;20648;-86
2023/03/21 09:28:13;;;;;;;5.43;3.10;;;;;;;17.98;63.75;98268.97;4123798;28;20673;-85
2023/03/21 09:30:18;;;;;;;4.17;2.97;;;;;;;18.06;63.21;98269.09;4126880;28;20637;-85
2023/03/21 09:32:22;;;;;;;3.70;2.80;;;;;;;18.13;64.35;98270.19;4124423;28;20749;-86
2023/03/21 09:34:26;;;;;;;3.57;3.03;;;;;;;18.18;65.09;98274.06;4123298;28;20702;-86
2023/03/21 09:36:31;;;;;;;6.13;2.90;;;;;;;18.27;64.11;98275.00;4107069;28;21230;-85
2023/03/21 09:38:36;;;;;;;4.40;3.17;;;;;;;18.23;63.60;98276.25;4102851;28;20638;-86
2023/03/21 09:40:53;;;;;;;3.30;2.80;;;;;;;18.28;62.45;98263.44;4102859;28;20704;-88
2023/03/21 09:43:00;;;;;;;3.33;3.03;;;;;;;18.34;63.86;98266.31;4122215;28;20628;-87
2023/03/21 09:45:08;;;;;;;4.57;3.60;;;;;;;18.41;63.92;98269.22;4122203;28;20695;-87
2023/03/21 09:47:19;;;;;;;4.03;3.60;;;;;;;18.36;63.51;98261.72;4120448;28;20628;-86
2023/03/21 09:49:29;;;;;;;4.43;3.27;;;;;;;18.35;62.15;98256.59;4104924;28;20644;-86
2023/03/21 09:51:35;;;;;;;5.70;3.10;;;;;;;18.27;63.55;98254.69;4142579;28;20631;-86
2023/03/21 09:53:42;;;;;;;3.83;3.37;;;;;;;18.25;62.64;98253.16;4125192;28;20624;-86
2023/03/21 09:55:46;;;;;;;2.97;2.67;;;;;;;18.27;61.93;98257.34;4126467;28;21316;-86
2023/03/21 09:57:51;;;;;;;4.07;3.20;;;;;;;18.29;65.33;98244.81;4125349;28;20628;-86
2023/03/21 09:59:56;;;;;;;3.43;2.73;;;;;;;18.32;61.91;98247.16;4122838;28;20749;-86